sensor_id;sensor_type;location;lat;lon;timestamp;pressure;altitude;pressure_sealevel;temperature;humidity
19831;BME280;10076;52.008;4.708;2024-03-22T00:02:05;102123.69;;;13.14;100.00
19831;BME280;10076;52.008;4.708;2024-03-22T00:04:31;102117.56;;;13.14;100.00
19831;BME280;10076;52.008;4.708;2024-03-22T00:06:56;102116.84;;;12.97;100.00
19831;BME280;10076;52.008;4.708;2024-03-22T00:09:21;102112.31;;;13.12;100.00
19831;BME280;10076;52.008;4.708;2024-03-22T00:11:47;102108.06;;;12.96;100.00
19831;BME280;10076;52.008;4.708;2024-03-22T00:14:12;102103.31;;;13.01;100.00
19831;BME280;10076;52.008;4.708;2024-03-22T00:16:38;102094.06;;;12.79;100.00
19831;BME280;10076;52.008;4.708;2024-03-22T00:19:03;102085.88;;;12.97;100.00
19831;BME280;10076;52.008;4.708;2024-03-22T00:21:30;102077.28;;;12.94;100.00
19831;BME280;10076;52.008;4.708;2024-03-22T00:23:56;102080.91;;;12.77;100.00
19831;BME280;10076;52.008;4.708;2024-03-22T00:26:22;102072.84;;;12.79;100.00
19831;BME280;10076;52.008;4.708;2024-03-22T00:28:47;102061.75;;;12.88;100.00
19831;BME280;10076;52.008;4.708;2024-03-22T00:31:12;102066.50;;;12.81;100.00
19831;BME280;10076;52.008;4.708;2024-03-22T00:33:37;102061.41;;;12.78;100.00
19831;BME280;10076;52.008;4.708;2024-03-22T00:36:03;102052.50;;;12.79;100.00
19831;BME280;10076;52.008;4.708;2024-03-22T00:38:28;102043.53;;;12.82;100.00
19831;BME280;10076;52.008;4.708;2024-03-22T00:40:54;102034.81;;;12.80;100.00
19831;BME280;10076;52.008;4.708;2024-03-22T00:43:20;102033.00;;;12.80;100.00
19831;BME280;10076;52.008;4.708;2024-03-22T00:45:45;102031.59;;;12.89;100.00
19831;BME280;10076;52.008;4.708;2024-03-22T00:48:10;102030.34;;;12.80;100.00
19831;BME280;10076;52.008;4.708;2024-03-22T00:50:36;102030.06;;;12.71;100.00
19831;BME280;10076;52.008;4.708;2024-03-22T00:53:01;102020.03;;;12.76;100.00
19831;BME280;10076;52.008;4.708;2024-03-22T00:55:28;102021.72;;;12.77;100.00
19831;BME280;10076;52.008;4.708;2024-03-22T00:57:53;102020.22;;;12.73;100.00
19831;BME280;10076;52.008;4.708;2024-03-22T01:00:19;102014.91;;;12.73;100.00
19831;BME280;10076;52.008;4.708;2024-03-22T01:02:44;102015.56;;;12.76;100.00
19831;BME280;10076;52.008;4.708;2024-03-22T01:05:10;102014.59;;;12.63;100.00
19831;BME280;10076;52.008;4.708;2024-03-22T01:07:36;102017.72;;;12.56;100.00
19831;BME280;10076;52.008;4.708;2024-03-22T01:10:02;102026.34;;;12.59;100.00
19831;BME280;10076;52.008;4.708;2024-03-22T01:12:27;102016.69;;;12.58;100.00
19831;BME280;10076;52.008;4.708;2024-03-22T01:14:54;102013.47;;;12.53;100.00
19831;BME280;10076;52.008;4.708;2024-03-22T01:17:19;102021.16;;;12.58;100.00
19831;BME280;10076;52.008;4.708;2024-03-22T01:19:44;102023.84;;;12.42;100.00
19831;BME280;10076;52.008;4.708;2024-03-22T01:22:09;102034.34;;;12.44;100.00
19831;BME280;10076;52.008;4.708;2024-03-22T01:24:35;102030.91;;;12.28;100.00
19831;BME280;10076;52.008;4.708;2024-03-22T01:27:00;102027.22;;;12.31;100.00
19831;BME280;10076;52.008;4.708;2024-03-22T01:29:25;102028.78;;;12.19;100.00
19831;BME280;10076;52.008;4.708;2024-03-22T01:31:52;102027.91;;;12.34;100.00
19831;BME280;10076;52.008;4.708;2024-03-22T01:34:18;102032.69;;;12.28;100.00
19831;BME280;10076;52.008;4.708;2024-03-22T01:36:43;102018.88;;;12.23;100.00
19831;BME280;10076;52.008;4.708;2024-03-22T01:39:08;102009.59;;;12.16;100.00
19831;BME280;10076;52.008;4.708;2024-03-22T01:41:33;102005.72;;;12.21;100.00
19831;BME280;10076;52.008;4.708;2024-03-22T01:43:59;102005.25;;;12.29;100.00
19831;BME280;10076;52.008;4.708;2024-03-22T01:46:24;102001.88;;;12.27;100.00
19831;BME280;10076;52.008;4.708;2024-03-22T01:48:50;102003.63;;;12.12;100.00
19831;BME280;10076;52.008;4.708;2024-03-22T01:51:17;102010.44;;;12.16;100.00
19831;BME280;10076;52.008;4.708;2024-03-22T01:53:42;102000.97;;;12.12;100.00
19831;BME280;10076;52.008;4.708;2024-03-22T01:56:08;101996.63;;;12.25;100.00
19831;BME280;10076;52.008;4.708;2024-03-22T01:58:34;101997.09;;;12.18;100.00
19831;BME280;10076;52.008;4.708;2024-03-22T02:01:00;101999.28;;;12.25;100.00
19831;BME280;10076;52.008;4.708;2024-03-22T02:03:25;102001.94;;;12.25;100.00
19831;BME280;10076;52.008;4.708;2024-03-22T02:05:51;101999.03;;;12.30;100.00
19831;BME280;10076;52.008;4.708;2024-03-22T02:08:17;101998.72;;;12.20;100.00
19831;BME280;10076;52.008;4.708;2024-03-22T02:10:43;101993.03;;;12.12;100.00
19831;BME280;10076;52.008;4.708;2024-03-22T02:13:08;101990.69;;;12.22;100.00
19831;BME280;10076;52.008;4.708;2024-03-22T02:15:33;101994.31;;;12.35;100.00
19831;BME280;10076;52.008;4.708;2024-03-22T02:17:59;101993.25;;;12.23;100.00
19831;BME280;10076;52.008;4.708;2024-03-22T02:20:24;101993.25;;;12.23;100.00
19831;BME280;10076;52.008;4.708;2024-03-22T02:22:49;101989.81;;;12.21;100.00
19831;BME280;10076;52.008;4.708;2024-03-22T02:25:15;101978.88;;;12.27;100.00
19831;BME280;10076;52.008;4.708;2024-03-22T02:27:41;101970.94;;;12.27;100.00
19831;BME280;10076;52.008;4.708;2024-03-22T02:30:06;101960.44;;;12.39;100.00
19831;BME280;10076;52.008;4.708;2024-03-22T02:32:32;101965.53;;;12.15;100.00
19831;BME280;10076;52.008;4.708;2024-03-22T02:34:57;101966.00;;;12.21;100.00
19831;BME280;10076;52.008;4.708;2024-03-22T02:37:22;101961.41;;;12.39;100.00
19831;BME280;10076;52.008;4.708;2024-03-22T02:39:48;101952.59;;;12.24;100.00
19831;BME280;10076;52.008;4.708;2024-03-22T02:42:13;101950.47;;;12.15;100.00
19831;BME280;10076;52.008;4.708;2024-03-22T02:44:38;101945.44;;;12.11;100.00
19831;BME280;10076;52.008;4.708;2024-03-22T02:47:10;101939.66;;;12.04;100.00
19831;BME280;10076;52.008;4.708;2024-03-22T02:49:38;101936.44;;;11.99;100.00
19831;BME280;10076;52.008;4.708;2024-03-22T02:52:04;101941.50;;;11.88;100.00
19831;BME280;10076;52.008;4.708;2024-03-22T02:54:29;101930.94;;;12.02;100.00
19831;BME280;10076;52.008;4.708;2024-03-22T02:56:55;101931.50;;;11.93;100.00
19831;BME280;10076;52.008;4.708;2024-03-22T02:59:20;101921.03;;;11.92;100.00
19831;BME280;10076;52.008;4.708;2024-03-22T03:01:45;101917.84;;;11.85;100.00
19831;BME280;10076;52.008;4.708;2024-03-22T03:04:10;101911.09;;;11.95;100.00
19831;BME280;10076;52.008;4.708;2024-03-22T03:06:36;101906.31;;;12.16;100.00
19831;BME280;10076;52.008;4.708;2024-03-22T03:09:01;101896.22;;;12.22;100.00
19831;BME280;10076;52.008;4.708;2024-03-22T03:11:27;101898.41;;;11.86;100.00
19831;BME280;10076;52.008;4.708;2024-03-22T03:13:52;101899.53;;;11.82;100.00
19831;BME280;10076;52.008;4.708;2024-03-22T03:16:17;101889.53;;;11.87;100.00
19831;BME280;10076;52.008;4.708;2024-03-22T03:18:43;101880.91;;;11.84;100.00
19831;BME280;10076;52.008;4.708;2024-03-22T03:21:08;101872.81;;;11.87;100.00
19831;BME280;10076;52.008;4.708;2024-03-22T03:23:33;101882.75;;;11.68;100.00
19831;BME280;10076;52.008;4.708;2024-03-22T03:25:59;101867.91;;;11.66;100.00
19831;BME280;10076;52.008;4.708;2024-03-22T03:28:24;101861.53;;;11.83;100.00
19831;BME280;10076;52.008;4.708;2024-03-22T03:30:51;101861.19;;;11.60;100.00
19831;BME280;10076;52.008;4.708;2024-03-22T03:33:16;101867.50;;;11.58;100.00
19831;BME280;10076;52.008;4.708;2024-03-22T03:35:45;101861.00;;;11.63;100.00
19831;BME280;10076;52.008;4.708;2024-03-22T03:38:11;101858.00;;;11.69;100.00
19831;BME280;10076;52.008;4.708;2024-03-22T03:40:36;101856.41;;;11.67;100.00
19831;BME280;10076;52.008;4.708;2024-03-22T03:43:01;101849.09;;;11.70;100.00
19831;BME280;10076;52.008;4.708;2024-03-22T03:45:27;101856.41;;;11.67;100.00
19831;BME280;10076;52.008;4.708;2024-03-22T03:47:52;101845.53;;;11.71;100.00
19831;BME280;10076;52.008;4.708;2024-03-22T03:50:17;101840.94;;;11.59;100.00
19831;BME280;10076;52.008;4.708;2024-03-22T03:52:43;101843.53;;;11.61;100.00
19831;BME280;10076;52.008;4.708;2024-03-22T03:55:08;101832.59;;;11.67;100.00
19831;BME280;10076;52.008;4.708;2024-03-22T03:57:33;101828.63;;;11.73;100.00
19831;BME280;10076;52.008;4.708;2024-03-22T03:59:59;101833.06;;;11.73;100.00
19831;BME280;10076;52.008;4.708;2024-03-22T04:02:24;101825.03;;;11.74;100.00
19831;BME280;10076;52.008;4.708;2024-03-22T04:04:52;101825.53;;;11.81;100.00
19831;BME280;10076;52.008;4.708;2024-03-22T04:07:18;101827.94;;;11.70;100.00
19831;BME280;10076;52.008;4.708;2024-03-22T04:09:43;101823.31;;;11.60;100.00
19831;BME280;10076;52.008;4.708;2024-03-22T04:12:08;101822.28;;;11.62;100.00
19831;BME280;10076;52.008;4.708;2024-03-22T04:14:34;101832.28;;;11.71;100.00
19831;BME280;10076;52.008;4.708;2024-03-22T04:16:59;101837.22;;;11.77;100.00
19831;BME280;10076;52.008;4.708;2024-03-22T04:19:24;101836.28;;;11.78;100.00
19831;BME280;10076;52.008;4.708;2024-03-22T04:21:49;101838.25;;;11.74;100.00
19831;BME280;10076;52.008;4.708;2024-03-22T04:24:15;101841.97;;;11.57;100.00
19831;BME280;10076;52.008;4.708;2024-03-22T04:26:40;101837.69;;;11.70;100.00
19831;BME280;10076;52.008;4.708;2024-03-22T04:29:06;101845.16;;;11.77;100.00
19831;BME280;10076;52.008;4.708;2024-03-22T04:31:31;101845.16;;;11.77;100.00
19831;BME280;10076;52.008;4.708;2024-03-22T04:33:56;101845.22;;;11.62;100.00
19831;BME280;10076;52.008;4.708;2024-03-22T04:36:22;101837.09;;;11.65;100.00
19831;BME280;10076;52.008;4.708;2024-03-22T04:38:47;101844.47;;;11.60;100.00
19831;BME280;10076;52.008;4.708;2024-03-22T04:41:13;101846.91;;;11.63;100.00
19831;BME280;10076;52.008;4.708;2024-03-22T04:43:38;101848.03;;;11.59;100.00
19831;BME280;10076;52.008;4.708;2024-03-22T04:46:04;101851.47;;;11.45;100.00
19831;BME280;10076;52.008;4.708;2024-03-22T04:48:29;101853.25;;;11.45;100.00
19831;BME280;10076;52.008;4.708;2024-03-22T04:50:54;101853.78;;;11.51;100.00
19831;BME280;10076;52.008;4.708;2024-03-22T04:53:20;101847.22;;;11.58;100.00
19831;BME280;10076;52.008;4.708;2024-03-22T04:55:46;101855.56;;;11.51;100.00
19831;BME280;10076;52.008;4.708;2024-03-22T04:58:22;101854.13;;;11.45;100.00
19831;BME280;10076;52.008;4.708;2024-03-22T05:00:48;101856.66;;;11.62;100.00
19831;BME280;10076;52.008;4.708;2024-03-22T05:03:14;101850.75;;;11.73;100.00
19831;BME280;10076;52.008;4.708;2024-03-22T05:05:41;101856.03;;;11.73;100.00
19831;BME280;10076;52.008;4.708;2024-03-22T05:08:07;101837.88;;;11.67;100.00
19831;BME280;10076;52.008;4.708;2024-03-22T05:10:33;101844.69;;;11.71;100.00
19831;BME280;10076;52.008;4.708;2024-03-22T05:12:59;101846.59;;;11.82;100.00
19831;BME280;10076;52.008;4.708;2024-03-22T05:15:25;101849.31;;;11.67;100.00
19831;BME280;10076;52.008;4.708;2024-03-22T05:17:51;101844.69;;;11.71;100.00
19831;BME280;10076;52.008;4.708;2024-03-22T05:20:16;101833.16;;;11.85;100.00
19831;BME280;10076;52.008;4.708;2024-03-22T05:22:41;101830.31;;;11.74;100.00
19831;BME280;10076;52.008;4.708;2024-03-22T05:25:07;101831.81;;;11.78;100.00
19831;BME280;10076;52.008;4.708;2024-03-22T05:27:33;101827.81;;;11.87;100.00
19831;BME280;10076;52.008;4.708;2024-03-22T05:29:58;101832.59;;;11.80;100.00
19831;BME280;10076;52.008;4.708;2024-03-22T05:32:24;101822.69;;;11.84;100.00
19831;BME280;10076;52.008;4.708;2024-03-22T05:34:50;101816.56;;;11.83;100.00
19831;BME280;10076;52.008;4.708;2024-03-22T05:37:16;101817.56;;;11.67;100.00
19831;BME280;10076;52.008;4.708;2024-03-22T05:39:41;101815.00;;;11.66;100.00
19831;BME280;10076;52.008;4.708;2024-03-22T05:42:07;101810.88;;;11.75;100.00
19831;BME280;10076;52.008;4.708;2024-03-22T05:44:32;101811.34;;;11.82;100.00
19831;BME280;10076;52.008;4.708;2024-03-22T05:46:58;101807.53;;;11.58;100.00
19831;BME280;10076;52.008;4.708;2024-03-22T05:49:23;101797.03;;;11.57;100.00
19831;BME280;10076;52.008;4.708;2024-03-22T05:51:48;101800.22;;;11.62;100.00
19831;BME280;10076;52.008;4.708;2024-03-22T05:54:14;101801.94;;;11.63;100.00
19831;BME280;10076;52.008;4.708;2024-03-22T05:56:39;101797.78;;;11.59;100.00
19831;BME280;10076;52.008;4.708;2024-03-22T05:59:04;101786.16;;;11.61;100.00
19831;BME280;10076;52.008;4.708;2024-03-22T06:01:30;101782.84;;;11.58;100.00
19831;BME280;10076;52.008;4.708;2024-03-22T06:03:55;101773.72;;;11.63;100.00
19831;BME280;10076;52.008;4.708;2024-03-22T06:06:20;101766.72;;;11.62;100.00
19831;BME280;10076;52.008;4.708;2024-03-22T06:08:50;101784.75;;;11.70;100.00
19831;BME280;10076;52.008;4.708;2024-03-22T06:11:18;101780.81;;;11.76;100.00
19831;BME280;10076;52.008;4.708;2024-03-22T06:13:43;101776.81;;;11.70;100.00
19831;BME280;10076;52.008;4.708;2024-03-22T06:16:09;101767.31;;;11.81;100.00
19831;BME280;10076;52.008;4.708;2024-03-22T06:18:34;101778.06;;;11.78;100.00
19831;BME280;10076;52.008;4.708;2024-03-22T06:20:59;101778.53;;;11.71;100.00
19831;BME280;10076;52.008;4.708;2024-03-22T06:23:25;101778.63;;;11.83;100.00
19831;BME280;10076;52.008;4.708;2024-03-22T06:25:54;101776.66;;;11.86;100.00
19831;BME280;10076;52.008;4.708;2024-03-22T06:28:19;101762.03;;;11.81;100.00
19831;BME280;10076;52.008;4.708;2024-03-22T06:30:45;101775.63;;;11.89;100.00
19831;BME280;10076;52.008;4.708;2024-03-22T06:33:10;101769.38;;;11.76;100.00
19831;BME280;10076;52.008;4.708;2024-03-22T06:35:35;101774.09;;;11.99;100.00
19831;BME280;10076;52.008;4.708;2024-03-22T06:38:01;101770.34;;;12.03;100.00
19831;BME280;10076;52.008;4.708;2024-03-22T06:40:28;101778.94;;;12.06;100.00
19831;BME280;10076;52.008;4.708;2024-03-22T06:42:53;101785.84;;;12.09;100.00
19831;BME280;10076;52.008;4.708;2024-03-22T06:45:19;101789.81;;;12.02;100.00
19831;BME280;10076;52.008;4.708;2024-03-22T06:47:44;101783.94;;;12.11;100.00
19831;BME280;10076;52.008;4.708;2024-03-22T06:50:11;101783.94;;;12.25;100.00
19831;BME280;10076;52.008;4.708;2024-03-22T06:52:36;101772.13;;;12.30;100.00
19831;BME280;10076;52.008;4.708;2024-03-22T06:55:01;101779.88;;;12.19;100.00
19831;BME280;10076;52.008;4.708;2024-03-22T06:57:26;101780.06;;;12.16;100.00
19831;BME280;10076;52.008;4.708;2024-03-22T06:59:52;101780.25;;;12.13;100.00
19831;BME280;10076;52.008;4.708;2024-03-22T07:02:17;101783.06;;;12.38;100.00
19831;BME280;10076;52.008;4.708;2024-03-22T07:04:43;101785.75;;;12.24;100.00
19831;BME280;10076;52.008;4.708;2024-03-22T07:07:09;101784.22;;;12.20;100.00
19831;BME280;10076;52.008;4.708;2024-03-22T07:09:34;101781.28;;;12.25;100.00
19831;BME280;10076;52.008;4.708;2024-03-22T07:12:01;101789.03;;;12.28;100.00
19831;BME280;10076;52.008;4.708;2024-03-22T07:14:26;101776.84;;;12.25;100.00
19831;BME280;10076;52.008;4.708;2024-03-22T07:16:51;101776.72;;;12.40;100.00
19831;BME280;10076;52.008;4.708;2024-03-22T07:19:19;101775.72;;;12.15;100.00
19831;BME280;10076;52.008;4.708;2024-03-22T07:21:45;101777.22;;;12.19;100.00
19831;BME280;10076;52.008;4.708;2024-03-22T07:24:11;101790.75;;;12.29;100.00
19831;BME280;10076;52.008;4.708;2024-03-22T07:26:36;101780.66;;;12.07;100.00
19831;BME280;10076;52.008;4.708;2024-03-22T07:29:02;101781.50;;;12.08;100.00
19831;BME280;10076;52.008;4.708;2024-03-22T07:31:27;101787.25;;;12.14;100.00
19831;BME280;10076;52.008;4.708;2024-03-22T07:33:53;101783.38;;;12.20;100.00
19831;BME280;10076;52.008;4.708;2024-03-22T07:36:19;101791.59;;;12.15;100.00
19831;BME280;10076;52.008;4.708;2024-03-22T07:38:44;101790.66;;;12.02;100.00
19831;BME280;10076;52.008;4.708;2024-03-22T07:41:09;101786.03;;;12.06;100.00
19831;BME280;10076;52.008;4.708;2024-03-22T07:43:34;101782.25;;;11.96;100.00
19831;BME280;10076;52.008;4.708;2024-03-22T07:46:00;101788.88;;;12.03;100.00
19831;BME280;10076;52.008;4.708;2024-03-22T07:48:25;101778.16;;;11.90;100.00
19831;BME280;10076;52.008;4.708;2024-03-22T07:51:01;101776.75;;;11.85;100.00
19831;BME280;10076;52.008;4.708;2024-03-22T07:53:26;101775.16;;;11.96;100.00
19831;BME280;10076;52.008;4.708;2024-03-22T07:55:52;101782.88;;;11.85;100.00
19831;BME280;10076;52.008;4.708;2024-03-22T07:58:17;101779.78;;;11.79;100.00
19831;BME280;10076;52.008;4.708;2024-03-22T08:00:42;101782.69;;;11.74;100.00
19831;BME280;10076;52.008;4.708;2024-03-22T08:03:14;101776.75;;;11.99;100.00
19831;BME280;10076;52.008;4.708;2024-03-22T08:05:40;101780.28;;;11.99;100.00
19831;BME280;10076;52.008;4.708;2024-03-22T08:08:05;101770.72;;;11.97;100.00
19831;BME280;10076;52.008;4.708;2024-03-22T08:10:30;101775.75;;;12.01;100.00
19831;BME280;10076;52.008;4.708;2024-03-22T08:12:56;101775.81;;;11.86;100.00
19831;BME280;10076;52.008;4.708;2024-03-22T08:15:21;101776.50;;;11.89;100.00
19831;BME280;10076;52.008;4.708;2024-03-22T08:17:46;101775.63;;;11.89;100.00
19831;BME280;10076;52.008;4.708;2024-03-22T08:20:12;101783.28;;;11.93;100.00
19831;BME280;10076;52.008;4.708;2024-03-22T08:22:37;101788.88;;;12.03;100.00
19831;BME280;10076;52.008;4.708;2024-03-22T08:25:03;101787.25;;;12.14;100.00
19831;BME280;10076;52.008;4.708;2024-03-22T08:27:29;101784.06;;;11.95;100.00
19831;BME280;10076;52.008;4.708;2024-03-22T08:29:54;101789.16;;;11.98;100.00
19831;BME280;10076;52.008;4.708;2024-03-22T08:32:20;101783.19;;;11.95;100.00
19831;BME280;10076;52.008;4.708;2024-03-22T08:34:46;101785.47;;;12.01;100.00
19831;BME280;10076;52.008;4.708;2024-03-22T08:37:11;101783.94;;;11.97;100.00
19831;BME280;10076;52.008;4.708;2024-03-22T08:39:36;101775.44;;;11.92;100.00
19831;BME280;10076;52.008;4.708;2024-03-22T08:42:02;101771.00;;;11.92;100.00
19831;BME280;10076;52.008;4.708;2024-03-22T08:44:30;101782.41;;;11.93;100.00
19831;BME280;10076;52.008;4.708;2024-03-22T08:46:55;101780.63;;;11.79;100.00
19831;BME280;10076;52.008;4.708;2024-03-22T08:49:20;101771.94;;;11.77;100.00
19831;BME280;10076;52.008;4.708;2024-03-22T08:51:46;101776.88;;;11.83;100.00
19831;BME280;10076;52.008;4.708;2024-03-22T08:54:11;101773.19;;;11.86;100.00
19831;BME280;10076;52.008;4.708;2024-03-22T08:56:36;101766.09;;;12.00;100.00
19831;BME280;10076;52.008;4.708;2024-03-22T08:59:02;101762.94;;;11.94;100.00
19831;BME280;10076;52.008;4.708;2024-03-22T09:01:27;101757.59;;;11.95;100.00
19831;BME280;10076;52.008;4.708;2024-03-22T09:03:52;101769.88;;;11.82;100.00
19831;BME280;10076;52.008;4.708;2024-03-22T09:06:18;101773.63;;;11.78;100.00
19831;BME280;10076;52.008;4.708;2024-03-22T09:08:43;101769.56;;;11.73;100.00
19831;BME280;10076;52.008;4.708;2024-03-22T09:11:08;101759.06;;;11.85;100.00
19831;BME280;10076;52.008;4.708;2024-03-22T09:13:34;101765.09;;;11.73;100.00
19831;BME280;10076;52.008;4.708;2024-03-22T09:16:00;101770.41;;;11.73;100.00
19831;BME280;10076;52.008;4.708;2024-03-22T09:18:26;101764.47;;;11.84;100.00
19831;BME280;10076;52.008;4.708;2024-03-22T09:20:53;101759.84;;;11.87;100.00
19831;BME280;10076;52.008;4.708;2024-03-22T09:23:18;101768.63;;;11.74;100.00
19831;BME280;10076;52.008;4.708;2024-03-22T09:25:45;101765.31;;;11.71;100.00
19831;BME280;10076;52.008;4.708;2024-03-22T09:28:11;101766.75;;;11.90;100.00
19831;BME280;10076;52.008;4.708;2024-03-22T09:30:40;101767.31;;;11.81;100.00
19831;BME280;10076;52.008;4.708;2024-03-22T09:33:06;101764.91;;;11.63;100.00
19831;BME280;10076;52.008;4.708;2024-03-22T09:35:34;101760.00;;;11.84;100.00
19831;BME280;10076;52.008;4.708;2024-03-22T09:38:00;101769.09;;;11.80;100.00
19831;BME280;10076;52.008;4.708;2024-03-22T09:40:27;101767.88;;;11.86;100.00
19831;BME280;10076;52.008;4.708;2024-03-22T09:42:53;101770.81;;;11.95;100.00
19831;BME280;10076;52.008;4.708;2024-03-22T09:45:19;101763.44;;;11.86;100.00
19831;BME280;10076;52.008;4.708;2024-03-22T09:47:46;101761.19;;;11.94;100.00
19831;BME280;10076;52.008;4.708;2024-03-22T09:50:14;101751.44;;;11.81;100.00
19831;BME280;10076;52.008;4.708;2024-03-22T09:52:41;101754.94;;;11.95;100.00
19831;BME280;10076;52.008;4.708;2024-03-22T09:55:07;101752.00;;;11.86;100.00
19831;BME280;10076;52.008;4.708;2024-03-22T09:57:35;101752.00;;;12.00;100.00
19831;BME280;10076;52.008;4.708;2024-03-22T10:00:02;101751.31;;;11.96;100.00
19831;BME280;10076;52.008;4.708;2024-03-22T10:02:28;101743.78;;;12.04;100.00
19831;BME280;10076;52.008;4.708;2024-03-22T10:04:56;101747.72;;;11.97;100.00
19831;BME280;10076;52.008;4.708;2024-03-22T10:07:22;101745.28;;;12.08;100.00
19831;BME280;10076;52.008;4.708;2024-03-22T10:09:47;101743.59;;;12.07;100.00
19831;BME280;10076;52.008;4.708;2024-03-22T10:12:12;101739.69;;;12.13;100.00
19831;BME280;10076;52.008;4.708;2024-03-22T10:14:38;101746.41;;;12.18;100.00
19831;BME280;10076;52.008;4.708;2024-03-22T10:17:05;101747.63;;;12.13;100.00
19831;BME280;10076;52.008;4.708;2024-03-22T10:19:30;101745.66;;;12.16;100.00
19831;BME280;10076;52.008;4.708;2024-03-22T10:22:00;101740.75;;;12.24;100.00
19831;BME280;10076;52.008;4.708;2024-03-22T10:24:25;101752.38;;;12.22;100.00
19831;BME280;10076;52.008;4.708;2024-03-22T10:26:50;101746.59;;;12.29;100.00
19831;BME280;10076;52.008;4.708;2024-03-22T10:29:16;101748.84;;;12.35;100.00
19831;BME280;10076;52.008;4.708;2024-03-22T10:31:41;101747.31;;;12.31;100.00
19831;BME280;10076;52.008;4.708;2024-03-22T10:34:07;101744.13;;;12.26;100.00
19831;BME280;10076;52.008;4.708;2024-03-22T10:36:34;101744.50;;;12.20;100.00
19831;BME280;10076;52.008;4.708;2024-03-22T10:39:00;101749.13;;;12.17;100.00
19831;BME280;10076;52.008;4.708;2024-03-22T10:41:26;101752.75;;;12.16;100.00
19831;BME280;10076;52.008;4.708;2024-03-22T10:43:52;101760.88;;;11.99;100.00
19831;BME280;10076;52.008;4.708;2024-03-22T10:46:20;101758.03;;;12.02;100.00
19831;BME280;10076;52.008;4.708;2024-03-22T10:48:45;101755.13;;;11.92;100.00
19831;BME280;10076;52.008;4.708;2024-03-22T10:51:12;101754.63;;;12.00;100.00
19831;BME280;10076;52.008;4.708;2024-03-22T10:53:38;101744.34;;;11.95;100.00
19831;BME280;10076;52.008;4.708;2024-03-22T10:56:04;101752.47;;;12.06;100.00
19831;BME280;10076;52.008;4.708;2024-03-22T10:58:34;101747.63;;;12.13;100.00
19831;BME280;10076;52.008;4.708;2024-03-22T11:00:59;101748.31;;;12.16;100.00
19831;BME280;10076;52.008;4.708;2024-03-22T11:03:26;101747.19;;;12.06;100.00
19831;BME280;10076;52.008;4.708;2024-03-22T11:05:56;101743.59;;;12.07;100.00
19831;BME280;10076;52.008;4.708;2024-03-22T11:10:50;101738.56;;;12.03;100.00
19831;BME280;10076;52.008;4.708;2024-03-22T11:13:16;101739.44;;;11.89;100.00
19831;BME280;10076;52.008;4.708;2024-03-22T11:15:42;101734.72;;;11.94;100.00
19831;BME280;10076;52.008;4.708;2024-03-22T11:18:08;101741.31;;;12.15;100.00
19831;BME280;10076;52.008;4.708;2024-03-22T11:20:36;101729.50;;;12.21;100.00
19831;BME280;10076;52.008;4.708;2024-03-22T11:23:06;101731.56;;;12.16;100.00
19831;BME280;10076;52.008;4.708;2024-03-22T11:25:32;101742.81;;;12.05;100.00
19831;BME280;10076;52.008;4.708;2024-03-22T11:27:59;101735.50;;;12.23;100.00
19831;BME280;10076;52.008;4.708;2024-03-22T11:30:29;101731.47;;;12.17;100.00
19831;BME280;10076;52.008;4.708;2024-03-22T11:32:55;101732.38;;;12.44;100.00
19831;BME280;10076;52.008;4.708;2024-03-22T11:35:21;101726.50;;;12.39;100.00
19831;BME280;10076;52.008;4.708;2024-03-22T11:37:47;101722.06;;;12.66;100.00
19831;BME280;10076;52.008;4.708;2024-03-22T11:40:12;101721.94;;;12.81;100.00
19831;BME280;10076;52.008;4.708;2024-03-22T11:42:39;101717.13;;;12.74;100.00
19831;BME280;10076;52.008;4.708;2024-03-22T11:45:08;101723.19;;;12.76;100.00
19831;BME280;10076;52.008;4.708;2024-03-22T11:47:34;101714.75;;;12.83;100.00
19831;BME280;10076;52.008;4.708;2024-03-22T11:50:01;101707.59;;;12.71;100.00
19831;BME280;10076;52.008;4.708;2024-03-22T11:52:27;101705.25;;;12.93;100.00
19831;BME280;10076;52.008;4.708;2024-03-22T11:54:53;101708.16;;;13.15;100.00
19831;BME280;10076;52.008;4.708;2024-03-22T11:57:20;101710.09;;;13.13;100.00
19831;BME280;10076;52.008;4.708;2024-03-22T11:59:45;101709.91;;;13.28;100.00
19831;BME280;10076;52.008;4.708;2024-03-22T12:02:11;101706.84;;;13.34;100.00
19831;BME280;10076;52.008;4.708;2024-03-22T12:04:40;101702.13;;;13.25;100.00
19831;BME280;10076;52.008;4.708;2024-03-22T12:07:10;101701.94;;;13.41;100.00
19831;BME280;10076;52.008;4.708;2024-03-22T12:09:35;101696.00;;;13.37;100.00
19831;BME280;10076;52.008;4.708;2024-03-22T12:12:00;101702.31;;;13.10;100.00
19831;BME280;10076;52.008;4.708;2024-03-22T12:14:26;101690.00;;;12.97;100.00
19831;BME280;10076;52.008;4.708;2024-03-22T12:16:51;101684.38;;;13.01;100.00
19831;BME280;10076;52.008;4.708;2024-03-22T12:19:16;101687.69;;;13.05;100.00
19831;BME280;10076;52.008;4.708;2024-03-22T12:21:41;101681.09;;;13.10;100.00
19831;BME280;10076;52.008;4.708;2024-03-22T12:24:07;101678.69;;;13.19;100.00
19831;BME280;10076;52.008;4.708;2024-03-22T12:26:32;101671.38;;;13.35;100.00
19831;BME280;10076;52.008;4.708;2024-03-22T12:28:58;101675.44;;;13.66;100.00
19831;BME280;10076;52.008;4.708;2024-03-22T12:31:23;101668.41;;;13.77;100.00
19831;BME280;10076;52.008;4.708;2024-03-22T12:33:48;101667.53;;;13.64;100.00
19831;BME280;10076;52.008;4.708;2024-03-22T12:36:14;101666.06;;;13.60;100.00